This is the latest recevied weather packets stored in our database for station/object KB0BDN-13. If no packets are shown the sender has not sent any weather packets the latest 10 day(s).
| Time | Temp. | Humidity | Pressure | Rain* | Wind** | Luminosity | Snow |
|---|---|---|---|---|---|---|---|
| 1778295724 | 2.22° C | 79% | - | 0 mm | - | - | - |
| 1778294824 | 3.33° C | 77% | - | 0 mm | - | - | - |
| 1778293924 | 3.89° C | 74% | - | 0 mm | - | - | - |
| 1778293024 | 5° C | 72% | - | 0 mm | - | - | - |
| 1778292124 | 6.11° C | 71% | - | 0 mm | - | - | - |
| 1778291224 | 6.67° C | 68% | - | 0 mm | - | - | - |
| 1778290324 | 7.78° C | 65% | - | 0 mm | - | - | - |
| 1778289424 | 8.33° C | 58% | - | 0 mm | - | - | - |
| 1778288524 | 8.89° C | 56% | - | 0 mm | - | - | - |
| 1778287624 | 9.44° C | 53% | - | 0 mm | - | - | - |
| 1778286724 | 10° C | 52% | - | 0 mm | - | - | - |
| 1778285824 | 10.56° C | 51% | - | 0 mm | - | - | - |
| 1778284924 | 10.56° C | 50% | - | 0 mm | - | - | - |
| 1778284024 | 10.56° C | 50% | - | 0 mm | - | - | - |
| 1778283124 | 10.56° C | 50% | - | 0 mm | - | - | - |
| 1778282224 | 10° C | 51% | - | 0 mm | - | - | - |
| 1778281324 | 10.56° C | 49% | - | 0 mm | - | - | - |
| 1778280424 | 10.56° C | 49% | - | 0 mm | - | - | - |
| 1778279524 | 11.11° C | 47% | - | 0 mm | - | - | - |
| 1778278624 | 10.56° C | 46% | - | 0 mm | - | - | - |
| 1778277728 | 11.11° C | 45% | - | 0 mm | - | - | - |
| 1778276828 | 11.67° C | 42% | - | 0 mm | - | - | - |
| 1778275928 | 11.67° C | 42% | - | 0 mm | - | - | - |
| 1778275028 | 11.67° C | 42% | - | 0 mm | - | - | - |
| 1778274128 | 11.11° C | 43% | - | 0 mm | - | - | - |
* Rain latest hour (hover to see other rain measurements)
** Current wind speed in m/s (hover to see current wind gust speed)